Élőkép

Információk

Albatrosz Repülő Egyesület
8000 Székesfehérvár,
Radványi utca 6.

Adószám:
19092908-2-07

Bankszámla szám:
Budapest Bank
10102952-01361819-00000001

Telefon: +36 30 9598-897

Telephey: Börgönd repülőtér

Börgöndi repülõtér

LHBP METAR/TAF

[source: ADDS]
METAR
TAF LHBP 020500Z 0206/0306 28014KT CAVOK TEMPO 0206/0208 SCT020 BECMG 0208/0210 25016KT BKN040 TEMPO 0212/0215 25018G32KT TEMPO 0215/0221 5000 SHRA SCT015 BKN025 BECMG 0217/0220 31015KT TEMPO 0221/0306 CAVOK TAF
TAF LHBP 020500Z 0206/0306 28014KT CAVOK TEMPO 0206/0208 SCT020 BECMG 0208/0210 25016KT BKN040 TEMPO 0212/0215 25018G32KT TEMPO 0215/0221 5000 SHRA SCT015 BKN025 BECMG 0217/0220 31015KT TEMPO 0221/0306 CAVOK =
SR / SS: 04:24 / 17:18 UTC (Börgönd 2015-04-02)
Hungarian Chinese (Simplified) Croatian Czech English Finnish French German Hebrew Italian Japanese Polish Portuguese Romanian Russian Serbian Slovak Slovenian Spanish

Belépés tagoknak